createdAt,value
2022-07-29T00:01:19.126Z,1.48
2022-07-29T00:03:46.839Z,1.60
2022-07-29T00:06:14.262Z,1.48
2022-07-29T00:08:41.239Z,2.28
2022-07-29T00:11:08.280Z,1.90
2022-07-29T00:13:35.401Z,1.38
2022-07-29T00:16:04.435Z,1.90
2022-07-29T00:18:32.949Z,1.35
2022-07-29T00:21:00.408Z,1.42
2022-07-29T00:23:27.555Z,1.60
2022-07-29T00:25:54.615Z,1.70
2022-07-29T00:28:21.592Z,1.30
2022-07-29T00:30:48.672Z,1.48
2022-07-29T00:33:15.758Z,1.20
2022-07-29T00:35:45.918Z,1.50
2022-07-29T00:38:17.523Z,1.50
2022-07-29T00:40:45.495Z,1.45
2022-07-29T00:43:14.754Z,1.10
2022-07-29T00:45:45.218Z,1.58
2022-07-29T00:48:12.308Z,1.23
2022-07-29T00:50:40.152Z,1.17
2022-07-29T00:53:08.566Z,1.40
2022-07-29T00:55:36.088Z,1.50
2022-07-29T00:58:03.810Z,1.40
2022-07-29T01:00:31.426Z,1.80
2022-07-29T01:02:58.927Z,1.55
2022-07-29T01:05:49.860Z,2.13
2022-07-29T01:08:17.098Z,2.60
2022-07-29T01:10:46.520Z,2.22
2022-07-29T01:13:14.846Z,2.85
2022-07-29T01:16:08.572Z,2.20
2022-07-29T01:18:39.202Z,1.85
2022-07-29T01:21:35.066Z,1.83
2022-07-29T01:24:10.917Z,1.70
2022-07-29T01:26:48.129Z,1.38
2022-07-29T01:29:59.915Z,1.77
2022-07-29T01:32:34.234Z,2.13
2022-07-29T01:35:37.610Z,1.67
2022-07-29T01:38:26.313Z,1.60
2022-07-29T01:41:00.083Z,1.60
2022-07-29T01:43:41.881Z,2.50
2022-07-29T01:46:15.683Z,3.70
2022-07-29T01:48:58.843Z,2.38
2022-07-29T01:51:32.907Z,2.38
2022-07-29T01:54:11.998Z,2.50
2022-07-29T01:56:40.694Z,1.85
2022-07-29T01:59:10.610Z,1.65
2022-07-29T02:01:40.369Z,1.45
2022-07-29T02:04:10.942Z,1.85
2022-07-29T02:06:41.325Z,1.52
2022-07-29T02:09:09.601Z,1.52
2022-07-29T02:11:38.888Z,1.20
2022-07-29T02:14:08.244Z,2.03
2022-07-29T02:16:38.707Z,2.67
2022-07-29T02:19:09.796Z,3.42
2022-07-29T02:21:37.099Z,4.25
2022-07-29T02:24:06.158Z,4.38
2022-07-29T02:26:34.775Z,6.68
2022-07-29T02:29:03.344Z,9.68
2022-07-29T02:31:34.809Z,7.60
2022-07-29T02:34:04.652Z,8.27
2022-07-29T02:36:33.867Z,10.07
2022-07-29T02:39:03.420Z,10.50
2022-07-29T02:41:51.631Z,9.57
2022-07-29T02:44:21.846Z,8.85
2022-07-29T02:47:25.788Z,9.00
2022-07-29T02:50:02.505Z,10.80
2022-07-29T02:52:41.089Z,10.57
2022-07-29T02:55:37.578Z,9.45
2022-07-29T02:58:13.787Z,9.98
2022-07-29T03:00:42.230Z,10.43
2022-07-29T03:03:13.797Z,10.32
2022-07-29T03:05:41.371Z,9.77
2022-07-29T03:08:11.553Z,9.02
2022-07-29T03:10:45.160Z,10.35
2022-07-29T03:13:14.314Z,10.75
2022-07-29T03:15:44.761Z,9.50
2022-07-29T03:18:12.343Z,9.65
2022-07-29T03:20:40.093Z,9.75
2022-07-29T03:23:07.656Z,9.85
2022-07-29T03:25:34.702Z,8.73
2022-07-29T03:28:01.739Z,9.80
2022-07-29T03:30:31.686Z,10.00
2022-07-29T03:32:59.220Z,10.45
2022-07-29T03:35:26.276Z,10.93
2022-07-29T03:37:53.251Z,10.77
2022-07-29T03:40:36.672Z,10.52
2022-07-29T03:43:05.004Z,9.15
2022-07-29T03:45:33.842Z,10.00
2022-07-29T03:48:06.713Z,8.68
2022-07-29T03:50:34.904Z,4.90
2022-07-29T03:53:02.565Z,2.78
2022-07-29T03:55:33.509Z,3.15
2022-07-29T03:58:02.775Z,5.28
2022-07-29T04:00:31.138Z,6.80
2022-07-29T04:02:58.953Z,7.53
2022-07-29T04:05:25.936Z,7.80
2022-07-29T04:07:52.864Z,5.00
2022-07-29T04:10:26.886Z,6.03
2022-07-29T04:12:59.089Z,4.75
2022-07-29T04:15:26.085Z,3.80
2022-07-29T04:17:57.885Z,3.78
2022-07-29T04:20:24.826Z,2.92
2022-07-29T04:22:52.127Z,1.90
2022-07-29T04:25:19.076Z,2.10
2022-07-29T04:28:04.388Z,1.30
2022-07-29T04:30:32.869Z,1.33
2022-07-29T04:33:01.901Z,1.10
2022-07-29T04:35:30.140Z,1.23
2022-07-29T04:37:57.453Z,1.23
2022-07-29T04:40:24.378Z,1.33
2022-07-29T04:42:51.373Z,2.25
2022-07-29T04:45:22.282Z,3.85
2022-07-29T04:47:49.949Z,1.58
2022-07-29T04:50:16.930Z,1.13
2022-07-29T04:52:44.894Z,1.00
2022-07-29T04:55:11.944Z,1.00
2022-07-29T04:57:38.869Z,2.90
2022-07-29T05:00:07.215Z,1.30
2022-07-29T05:02:34.233Z,1.50
2022-07-29T05:05:01.354Z,1.60
2022-07-29T05:07:28.280Z,3.30
2022-07-29T05:09:57.950Z,3.08
2022-07-29T05:12:25.692Z,4.45
2022-07-29T05:14:52.983Z,2.20
2022-07-29T05:17:20.144Z,3.17
2022-07-29T05:19:47.339Z,2.50
2022-07-29T05:22:14.335Z,3.10
2022-07-29T05:24:41.852Z,2.25
2022-07-29T05:27:08.764Z,2.53
2022-07-29T05:29:44.221Z,2.67
2022-07-29T05:32:12.023Z,2.35
2022-07-29T05:34:50.845Z,1.88
2022-07-29T05:37:19.851Z,2.15
2022-07-29T05:39:48.770Z,2.33
2022-07-29T05:42:16.250Z,2.20
2022-07-29T05:44:43.277Z,2.03
2022-07-29T05:47:10.213Z,2.30
2022-07-29T05:49:37.234Z,2.22
2022-07-29T05:52:04.662Z,1.88
2022-07-29T05:54:31.771Z,1.83
2022-07-29T05:56:58.764Z,1.10
2022-07-29T05:59:30.142Z,1.33
2022-07-29T06:01:58.440Z,1.02
2022-07-29T06:04:25.786Z,1.45
2022-07-29T06:06:52.831Z,1.00
2022-07-29T06:09:20.094Z,1.20
2022-07-29T06:11:47.130Z,1.00
2022-07-29T06:14:14.771Z,1.20
2022-07-29T06:16:42.351Z,1.00
2022-07-29T06:19:09.612Z,0.88
2022-07-29T06:21:38.665Z,0.88
2022-07-29T06:24:09.164Z,0.85
2022-07-29T06:26:39.699Z,1.15
2022-07-29T06:29:07.897Z,0.90
2022-07-29T06:31:35.455Z,1.00
2022-07-29T06:34:02.374Z,0.90
2022-07-29T06:36:31.040Z,1.10
2022-07-29T06:38:58.067Z,0.80
2022-07-29T06:41:25.023Z,1.50
2022-07-29T06:43:55.211Z,0.85
2022-07-29T06:46:24.236Z,1.00
2022-07-29T06:48:53.078Z,0.93
2022-07-29T06:51:22.786Z,0.80
2022-07-29T06:53:59.500Z,1.13
2022-07-29T06:56:39.524Z,0.80
2022-07-29T06:59:10.565Z,1.00
2022-07-29T07:01:38.779Z,0.77
2022-07-29T07:04:05.883Z,0.82
2022-07-29T07:06:33.668Z,0.90
2022-07-29T07:09:00.639Z,0.73
2022-07-29T07:11:27.986Z,1.05
2022-07-29T07:13:59.267Z,2.00
2022-07-29T07:16:29.587Z,1.25
2022-07-29T07:18:56.515Z,1.20
2022-07-29T07:21:24.663Z,1.10
2022-07-29T07:23:51.620Z,1.08
2022-07-29T07:26:18.540Z,1.25
2022-07-29T07:28:45.521Z,1.27
2022-07-29T07:31:13.038Z,1.20
2022-07-29T07:33:40.022Z,1.33
2022-07-29T07:36:07.084Z,1.20
2022-07-29T07:38:34.087Z,1.65
2022-07-29T07:41:02.198Z,1.40
2022-07-29T07:43:29.310Z,1.60
2022-07-29T07:45:56.316Z,1.52
2022-07-29T07:48:23.279Z,1.52
2022-07-29T07:50:50.553Z,1.20
2022-07-29T07:53:17.811Z,1.40
2022-07-29T07:56:09.377Z,1.67
2022-07-29T07:58:33.877Z,2.22
2022-07-29T08:01:00.818Z,1.80
2022-07-29T08:03:27.805Z,2.10
2022-07-29T08:05:55.428Z,1.77
2022-07-29T08:08:22.442Z,1.73
2022-07-29T08:10:57.145Z,2.80
2022-07-29T08:13:31.506Z,1.80
2022-07-29T08:18:31.339Z,1.23
2022-07-29T08:20:59.226Z,1.60
2022-07-29T08:23:32.828Z,1.60
2022-07-29T08:26:14.849Z,1.15
2022-07-29T08:28:45.869Z,1.35
2022-07-29T08:31:14.236Z,1.30
2022-07-29T08:33:41.252Z,1.15
2022-07-29T08:36:08.445Z,1.27
2022-07-29T08:38:36.014Z,1.27
2022-07-29T08:41:03.024Z,1.23
2022-07-29T08:43:30.285Z,0.90
2022-07-29T08:45:57.290Z,1.23
2022-07-29T08:48:25.915Z,1.10
2022-07-29T08:50:57.937Z,1.27
2022-07-29T08:53:27.924Z,1.60
2022-07-29T08:55:56.075Z,0.98
2022-07-29T08:58:24.857Z,1.50
2022-07-29T09:00:56.975Z,1.30
2022-07-29T09:03:28.518Z,1.00
2022-07-29T09:05:55.694Z,1.75
2022-07-29T09:08:24.306Z,1.38
2022-07-29T09:10:52.340Z,1.30
2022-07-29T09:13:19.368Z,1.17
2022-07-29T09:15:46.631Z,1.10
2022-07-29T09:18:19.604Z,1.35
2022-07-29T09:21:16.071Z,1.48
2022-07-29T09:24:00.301Z,1.00
2022-07-29T09:26:37.603Z,1.30
2022-07-29T09:29:17.771Z,1.48
2022-07-29T09:31:50.033Z,1.20
2022-07-29T09:34:29.603Z,0.70
2022-07-29T09:36:57.032Z,1.17
2022-07-29T09:39:36.107Z,0.90
2022-07-29T09:42:07.748Z,1.10
2022-07-29T09:44:50.245Z,1.73
2022-07-29T09:47:19.165Z,1.30
2022-07-29T09:49:54.029Z,1.02
2022-07-29T09:52:21.645Z,0.77
2022-07-29T09:54:48.847Z,1.63
2022-07-29T09:57:31.115Z,1.35
2022-07-29T10:00:11.833Z,2.85
2022-07-29T10:02:41.103Z,0.90
2022-07-29T10:05:21.236Z,1.00
2022-07-29T10:07:51.883Z,0.82
2022-07-29T10:10:29.217Z,0.98
2022-07-29T10:13:06.419Z,1.75
2022-07-29T10:15:42.001Z,1.85
2022-07-29T10:18:10.483Z,1.27
2022-07-29T10:20:38.107Z,1.27
2022-07-29T10:23:05.886Z,1.30
2022-07-29T10:25:33.128Z,1.67
2022-07-29T10:28:00.165Z,0.80
2022-07-29T10:30:27.860Z,1.50
2022-07-29T10:33:03.657Z,1.00
2022-07-29T10:35:55.175Z,1.23
2022-07-29T10:38:33.930Z,0.73
2022-07-29T10:41:29.032Z,0.90
2022-07-29T10:44:23.207Z,1.05
2022-07-29T10:46:56.267Z,1.08
2022-07-29T10:49:28.085Z,1.80
2022-07-29T10:52:00.998Z,1.25
2022-07-29T10:54:52.610Z,1.00
2022-07-29T10:57:53.803Z,0.77
2022-07-29T11:00:17.018Z,1.08
2022-07-29T11:02:47.126Z,0.95
2022-07-29T11:05:21.872Z,0.88
2022-07-29T11:08:21.101Z,1.08
2022-07-29T11:11:15.871Z,1.05
2022-07-29T11:13:44.455Z,2.15
2022-07-29T11:16:11.460Z,0.80
2022-07-29T11:19:14.225Z,1.23
2022-07-29T11:21:55.127Z,1.98
2022-07-29T11:24:34.966Z,0.68
2022-07-29T11:27:18.381Z,1.25
2022-07-29T11:29:58.709Z,0.90
2022-07-29T11:32:38.888Z,0.70
2022-07-29T11:35:17.392Z,1.75
2022-07-29T11:37:52.780Z,1.95
2022-07-29T11:40:25.112Z,0.80
2022-07-29T11:42:52.811Z,1.48
2022-07-29T11:45:43.140Z,1.10
2022-07-29T11:48:28.540Z,1.30
2022-07-29T11:50:58.503Z,1.10
2022-07-29T11:53:26.097Z,1.00
2022-07-29T11:55:58.185Z,1.85
2022-07-29T11:58:26.358Z,0.75
2022-07-29T12:00:55.330Z,0.75
2022-07-29T12:03:33.490Z,1.80
2022-07-29T12:06:24.139Z,1.20
2022-07-29T12:08:51.187Z,1.10
2022-07-29T12:11:20.914Z,0.95
2022-07-29T12:13:50.050Z,0.88
2022-07-29T12:16:26.134Z,0.88
2022-07-29T12:19:02.360Z,0.90
2022-07-29T12:21:53.937Z,0.90
2022-07-29T12:24:27.443Z,0.80
2022-07-29T12:26:57.122Z,1.17
2022-07-29T12:29:34.988Z,0.93
2022-07-29T12:32:04.453Z,1.35
2022-07-29T12:34:32.359Z,0.80
2022-07-29T12:36:59.580Z,0.85
2022-07-29T12:39:29.045Z,1.00
2022-07-29T12:42:04.880Z,0.80
2022-07-29T12:44:51.565Z,0.70
2022-07-29T12:47:19.706Z,1.00
2022-07-29T12:49:47.870Z,0.70
2022-07-29T12:52:26.866Z,1.02
2022-07-29T12:54:53.882Z,0.65
2022-07-29T12:57:20.910Z,0.90
2022-07-29T13:00:00.948Z,0.73
2022-07-29T13:02:28.160Z,0.90
2022-07-29T13:05:00.267Z,1.02
2022-07-29T13:07:55.495Z,1.20
2022-07-29T13:10:24.645Z,0.82
2022-07-29T13:13:09.190Z,0.88
2022-07-29T13:15:41.238Z,1.23
2022-07-29T13:18:31.440Z,1.33
2022-07-29T13:20:58.852Z,1.33
2022-07-29T13:23:25.887Z,1.13
2022-07-29T13:25:52.871Z,1.00
2022-07-29T13:28:22.571Z,0.75
2022-07-29T13:30:49.572Z,1.10
2022-07-29T13:33:16.534Z,1.17
2022-07-29T13:35:43.583Z,1.10
2022-07-29T13:38:10.542Z,1.08
2022-07-29T13:40:37.418Z,1.05
2022-07-29T13:43:05.022Z,1.25
2022-07-29T13:45:32.085Z,1.20
2022-07-29T13:47:58.973Z,1.10
2022-07-29T13:50:25.928Z,0.98
2022-07-29T13:52:53.069Z,1.58
2022-07-29T13:55:20.709Z,1.10
2022-07-29T13:57:47.960Z,1.40
2022-07-29T14:00:16.236Z,1.00
2022-07-29T14:02:44.022Z,0.93
2022-07-29T14:05:11.325Z,1.05
2022-07-29T14:07:42.094Z,1.20
2022-07-29T14:10:09.578Z,0.82
2022-07-29T14:12:36.796Z,1.10
2022-07-29T14:15:04.089Z,2.25
2022-07-29T14:17:31.135Z,1.00
2022-07-29T14:19:58.059Z,1.95
2022-07-29T14:22:26.281Z,1.15
2022-07-29T14:24:53.616Z,0.98
2022-07-29T14:27:20.654Z,1.30
2022-07-29T14:30:05.780Z,1.20
2022-07-29T14:32:32.679Z,1.27
2022-07-29T14:34:59.568Z,1.42
2022-07-29T14:37:26.481Z,1.25
2022-07-29T14:39:53.483Z,1.42
2022-07-29T14:42:20.912Z,1.00
2022-07-29T14:44:48.914Z,1.45
2022-07-29T14:47:16.226Z,1.40
2022-07-29T14:49:43.130Z,1.23
2022-07-29T14:52:09.998Z,1.77
2022-07-29T14:54:36.929Z,1.42
2022-07-29T14:57:03.844Z,1.17
2022-07-29T14:59:30.870Z,1.52
2022-07-29T15:01:58.275Z,1.42
2022-07-29T15:04:25.591Z,1.05
2022-07-29T15:06:52.998Z,1.42
2022-07-29T15:09:19.927Z,1.73
2022-07-29T15:11:46.879Z,1.35
2022-07-29T15:14:13.820Z,1.77
2022-07-29T15:16:43.714Z,1.25
2022-07-29T15:19:11.109Z,1.67
2022-07-29T15:21:41.427Z,1.58
2022-07-29T15:24:15.448Z,1.98
2022-07-29T15:26:43.562Z,1.50
2022-07-29T15:29:10.741Z,1.60
2022-07-29T15:31:37.818Z,1.60
2022-07-29T15:34:06.258Z,1.83
2022-07-29T15:39:21.878Z,1.75
2022-07-29T15:41:49.210Z,1.63
2022-07-29T15:44:16.162Z,1.35
2022-07-29T15:47:02.047Z,1.52
2022-07-29T15:49:47.763Z,1.88
2022-07-29T15:52:25.886Z,1.70
2022-07-29T15:54:56.190Z,1.67
2022-07-29T15:57:23.921Z,1.90
2022-07-29T15:59:51.129Z,2.10
2022-07-29T16:02:18.154Z,2.38
2022-07-29T16:04:45.060Z,1.73
2022-07-29T16:07:12.177Z,2.35
2022-07-29T16:09:41.782Z,1.85
2022-07-29T16:12:14.612Z,2.05
2022-07-29T16:14:42.278Z,2.13
2022-07-29T16:17:09.340Z,1.35
2022-07-29T16:19:41.273Z,1.90
2022-07-29T16:22:08.372Z,2.10
2022-07-29T16:24:35.414Z,1.77
2022-07-29T16:27:02.418Z,2.15
2022-07-29T16:29:29.358Z,1.80
2022-07-29T16:31:56.529Z,2.63
2022-07-29T16:34:23.425Z,2.60
2022-07-29T16:36:50.360Z,1.90
2022-07-29T16:39:17.456Z,2.10
2022-07-29T16:41:44.353Z,1.45
2022-07-29T16:44:11.238Z,1.70
2022-07-29T16:46:40.859Z,1.55
2022-07-29T16:49:08.581Z,1.88
2022-07-29T16:51:35.604Z,2.00
2022-07-29T16:54:02.561Z,1.50
2022-07-29T16:56:29.514Z,2.33
2022-07-29T16:58:58.390Z,2.03
2022-07-29T17:01:25.413Z,2.10
2022-07-29T17:04:07.824Z,2.03
2022-07-29T17:06:36.283Z,2.15
2022-07-29T17:09:05.384Z,1.85
2022-07-29T17:11:53.171Z,1.90
2022-07-29T17:14:27.467Z,1.90
2022-07-29T17:17:02.333Z,1.88
2022-07-29T17:19:35.598Z,2.13
2022-07-29T17:22:18.708Z,2.15
2022-07-29T17:24:48.903Z,2.00
2022-07-29T17:27:16.295Z,1.65
2022-07-29T17:29:43.557Z,1.95
2022-07-29T17:32:11.486Z,2.20
2022-07-29T17:34:40.180Z,2.25
2022-07-29T17:37:09.561Z,2.22
2022-07-29T17:39:37.686Z,2.22
2022-07-29T17:42:05.457Z,2.28
2022-07-29T17:44:36.090Z,1.90
2022-07-29T17:47:04.443Z,2.22
2022-07-29T17:49:31.665Z,1.98
2022-07-29T17:52:00.982Z,2.20
2022-07-29T17:54:29.026Z,1.73
2022-07-29T17:56:56.142Z,2.30
2022-07-29T17:59:23.414Z,1.90
2022-07-29T18:01:50.446Z,2.08
2022-07-29T18:04:21.071Z,2.25
2022-07-29T18:06:48.064Z,2.30
2022-07-29T18:09:14.964Z,1.92
2022-07-29T18:11:44.397Z,2.28
2022-07-29T18:14:12.755Z,2.45
2022-07-29T18:16:39.721Z,2.15
2022-07-29T18:19:06.958Z,2.15
2022-07-29T18:21:42.710Z,2.10
2022-07-29T18:24:18.357Z,2.45
2022-07-29T18:26:45.377Z,2.30
2022-07-29T18:29:12.483Z,2.30
2022-07-29T18:31:41.281Z,2.20
2022-07-29T18:34:08.351Z,2.28
2022-07-29T18:36:35.262Z,2.85
2022-07-29T18:39:02.291Z,2.17
2022-07-29T18:41:29.337Z,2.42
2022-07-29T18:43:56.418Z,2.50
2022-07-29T18:46:23.339Z,2.30
2022-07-29T18:48:52.603Z,2.33
2022-07-29T18:51:19.572Z,2.72
2022-07-29T18:53:46.532Z,2.20
2022-07-29T18:56:13.718Z,2.58
2022-07-29T18:58:40.749Z,2.28
2022-07-29T19:01:07.644Z,2.30
2022-07-29T19:03:34.889Z,1.75
2022-07-29T19:06:01.893Z,2.17
2022-07-29T19:08:28.913Z,2.22
2022-07-29T19:10:56.191Z,1.77
2022-07-29T19:13:23.419Z,1.83
2022-07-29T19:15:50.367Z,2.80
2022-07-29T19:18:17.302Z,2.80
2022-07-29T19:20:44.213Z,2.05
2022-07-29T19:23:11.125Z,1.75
2022-07-29T19:25:48.213Z,2.10
2022-07-29T19:28:21.160Z,2.45
2022-07-29T19:30:48.245Z,2.40
2022-07-29T19:33:17.706Z,2.58
2022-07-29T19:35:45.879Z,2.33
2022-07-29T19:38:13.328Z,1.92
2022-07-29T19:40:40.620Z,2.55
2022-07-29T19:43:50.790Z,2.72
2022-07-29T19:45:54.929Z,2.13
2022-07-29T19:48:21.840Z,1.95
2022-07-29T19:50:48.934Z,2.40
2022-07-29T19:53:15.841Z,2.53
2022-07-29T19:55:42.879Z,2.25
2022-07-29T19:58:09.795Z,2.53
2022-07-29T20:00:36.880Z,3.95
2022-07-29T20:03:07.087Z,2.50
2022-07-29T20:05:34.179Z,2.40
2022-07-29T20:08:01.148Z,2.70
2022-07-29T20:10:28.489Z,2.30
2022-07-29T20:12:55.533Z,2.42
2022-07-29T20:15:22.810Z,2.55
2022-07-29T20:17:51.856Z,2.50
2022-07-29T20:20:23.297Z,2.60
2022-07-29T20:22:50.226Z,2.60
2022-07-29T20:25:17.186Z,3.33
2022-07-29T20:27:44.083Z,2.38
2022-07-29T20:30:14.307Z,2.30
2022-07-29T20:32:41.951Z,2.20
2022-07-29T20:35:13.568Z,2.47
2022-07-29T20:37:52.519Z,2.70
2022-07-29T20:40:25.079Z,2.50
2022-07-29T20:42:52.402Z,3.05
2022-07-29T20:45:20.203Z,2.60
2022-07-29T20:47:47.198Z,3.40
2022-07-29T20:50:14.495Z,3.55
2022-07-29T20:52:43.409Z,3.13
2022-07-29T20:55:10.890Z,3.00
2022-07-29T20:57:39.472Z,3.78
2022-07-29T21:00:08.004Z,3.38
2022-07-29T21:02:36.802Z,3.47
2022-07-29T21:05:04.504Z,3.50
2022-07-29T21:07:31.498Z,3.13
2022-07-29T21:09:58.409Z,5.20
2022-07-29T21:12:25.378Z,4.20
2022-07-29T21:14:52.357Z,4.03
2022-07-29T21:17:22.410Z,4.38
2022-07-29T21:19:55.368Z,4.45
2022-07-29T21:22:23.557Z,4.82
2022-07-29T21:24:50.571Z,4.57
2022-07-29T21:27:38.446Z,4.55
2022-07-29T21:30:07.935Z,5.25
2022-07-29T21:32:34.941Z,5.35
2022-07-29T21:35:01.971Z,5.13
2022-07-29T21:37:29.057Z,4.50
2022-07-29T21:39:56.074Z,4.97
2022-07-29T21:42:23.103Z,6.30
2022-07-29T21:44:51.690Z,5.55
2022-07-29T21:47:18.678Z,4.72
2022-07-29T21:49:46.639Z,5.90
2022-07-29T21:52:14.194Z,5.88
2022-07-29T21:54:41.949Z,5.30
2022-07-29T21:57:09.445Z,5.10
2022-07-29T21:59:36.533Z,5.55
2022-07-29T22:02:03.801Z,5.07
2022-07-29T22:04:31.433Z,6.53
2022-07-29T22:06:58.956Z,6.05
2022-07-29T22:09:26.475Z,5.85
2022-07-29T22:11:54.286Z,6.60
2022-07-29T22:14:22.334Z,5.88
2022-07-29T22:16:49.360Z,6.70
2022-07-29T22:19:16.496Z,6.72
2022-07-29T22:21:43.809Z,7.13
2022-07-29T22:24:11.391Z,7.03
2022-07-29T22:26:38.846Z,7.88
2022-07-29T22:29:06.574Z,8.13
2022-07-29T22:31:33.982Z,9.13
2022-07-29T22:34:00.944Z,9.05
2022-07-29T22:36:27.840Z,9.15
2022-07-29T22:38:54.796Z,10.98
2022-07-29T22:41:21.726Z,9.95
2022-07-29T22:43:48.615Z,10.05
2022-07-29T22:46:15.818Z,10.95
2022-07-29T22:48:42.840Z,10.95
2022-07-29T22:51:10.108Z,10.50
2022-07-29T22:53:37.141Z,10.40
2022-07-29T22:56:04.557Z,11.13
2022-07-29T22:58:31.507Z,10.65
2022-07-29T23:00:58.738Z,10.77
2022-07-29T23:03:25.760Z,10.90
2022-07-29T23:05:52.860Z,10.65
2022-07-29T23:08:20.126Z,10.90
2022-07-29T23:10:47.687Z,9.63
2022-07-29T23:13:14.965Z,10.25
2022-07-29T23:15:42.232Z,9.98
2022-07-29T23:18:09.288Z,11.10
2022-07-29T23:20:36.465Z,10.85
2022-07-29T23:23:03.700Z,10.30
2022-07-29T23:25:30.674Z,10.93
2022-07-29T23:27:57.744Z,10.25
2022-07-29T23:30:24.925Z,11.20
2022-07-29T23:32:52.224Z,10.68
2022-07-29T23:35:19.233Z,10.35
2022-07-29T23:37:46.193Z,10.45
2022-07-29T23:40:14.735Z,10.73
2022-07-29T23:42:42.816Z,10.25
2022-07-29T23:45:11.415Z,11.20
2022-07-29T23:47:38.735Z,11.15
2022-07-29T23:50:07.623Z,9.55
2022-07-29T23:52:35.642Z,10.38
2022-07-29T23:55:37.431Z,10.98
2022-07-29T23:57:50.357Z,11.48
